createdAt,value
2022-09-24T00:01:36.594Z,5.75
2022-09-24T00:04:07.366Z,5.62
2022-09-24T00:06:41.924Z,5.54
2022-09-24T00:09:11.514Z,5.53
2022-09-24T00:11:40.799Z,5.51
2022-09-24T00:14:08.722Z,5.48
2022-09-24T00:16:37.178Z,5.40
2022-09-24T00:19:06.607Z,5.36
2022-09-24T00:21:36.449Z,5.31
2022-09-24T00:24:07.472Z,5.29
2022-09-24T00:26:54.564Z,5.23
2022-09-24T00:29:25.219Z,5.19
2022-09-24T00:31:54.616Z,5.15
2022-09-24T00:34:22.539Z,5.10
2022-09-24T00:36:50.941Z,5.06
2022-09-24T00:39:19.534Z,5.00
2022-09-24T00:41:49.805Z,4.92
2022-09-24T00:44:51.440Z,4.92
2022-09-24T00:47:40.701Z,4.93
2022-09-24T00:50:29.199Z,4.93
2022-09-24T00:52:58.717Z,4.86
2022-09-24T00:55:27.839Z,4.78
2022-09-24T00:58:01.179Z,4.72
2022-09-24T01:00:30.754Z,4.68
2022-09-24T01:03:14.012Z,4.64
2022-09-24T01:05:41.905Z,4.61
2022-09-24T01:08:18.009Z,4.58
2022-09-24T01:11:10.564Z,4.55
2022-09-24T01:14:06.796Z,4.54
2022-09-24T01:16:41.191Z,4.43
2022-09-24T01:19:40.301Z,4.51
2022-09-24T01:22:37.810Z,4.52
2022-09-24T01:25:43.703Z,4.45
2022-09-24T01:28:50.758Z,4.42
2022-09-24T01:31:48.364Z,4.39
2022-09-24T01:34:21.261Z,4.35
2022-09-24T01:36:50.883Z,4.31
2022-09-24T01:39:19.780Z,4.28
2022-09-24T01:41:48.260Z,4.20
2022-09-24T01:44:19.056Z,4.12
2022-09-24T01:46:47.544Z,4.14
2022-09-24T01:49:15.933Z,4.12
2022-09-24T01:51:59.574Z,4.06
2022-09-24T01:54:31.480Z,4.06
2022-09-24T01:57:22.505Z,4.01
2022-09-24T02:00:00.855Z,4.01
2022-09-24T02:02:38.155Z,3.96
2022-09-24T02:05:19.789Z,3.86
2022-09-24T02:07:51.379Z,3.86
2022-09-24T02:10:21.280Z,3.85
2022-09-24T02:12:54.535Z,3.76
2022-09-24T02:15:32.550Z,3.73
2022-09-24T02:18:05.431Z,3.74
2022-09-24T02:20:36.174Z,3.70
2022-09-24T02:23:05.025Z,3.67
2022-09-24T02:25:42.567Z,3.62
2022-09-24T02:28:10.911Z,3.62
2022-09-24T02:30:42.560Z,3.61
2022-09-24T02:33:32.979Z,3.60
2022-09-24T02:36:01.509Z,3.57
2022-09-24T02:38:29.542Z,3.52
2022-09-24T02:40:57.450Z,3.40
2022-09-24T02:43:26.143Z,3.44
2022-09-24T02:45:54.809Z,3.46
2022-09-24T02:48:22.299Z,3.45
2022-09-24T02:50:51.012Z,3.38
2022-09-24T02:53:19.496Z,3.40
2022-09-24T02:55:48.243Z,3.37
2022-09-24T02:58:16.685Z,3.32
2022-09-24T03:00:44.345Z,3.32
2022-09-24T03:03:12.178Z,3.29
2022-09-24T03:05:39.953Z,3.29
2022-09-24T03:08:08.364Z,3.30
2022-09-24T03:10:36.224Z,3.21
2022-09-24T03:13:05.224Z,3.22
2022-09-24T03:15:33.133Z,3.21
2022-09-24T03:18:00.967Z,3.17
2022-09-24T03:20:28.933Z,3.11
2022-09-24T03:22:57.145Z,3.14
2022-09-24T03:25:25.780Z,3.13
2022-09-24T03:27:54.274Z,3.14
2022-09-24T03:30:40.878Z,3.09
2022-09-24T03:33:09.130Z,3.06
2022-09-24T03:35:36.901Z,3.04
2022-09-24T03:38:05.845Z,3.09
2022-09-24T03:40:34.644Z,3.04
2022-09-24T03:43:04.374Z,3.03
2022-09-24T03:45:32.014Z,2.87
2022-09-24T03:48:00.298Z,2.91
2022-09-24T03:50:27.981Z,2.89
2022-09-24T03:52:56.145Z,2.88
2022-09-24T03:55:24.217Z,2.90
2022-09-24T03:57:52.508Z,2.83
2022-09-24T04:00:20.506Z,2.76
2022-09-24T04:02:50.229Z,2.81
2022-09-24T04:05:18.414Z,2.80
2022-09-24T04:07:46.120Z,2.74
2022-09-24T04:10:13.953Z,2.74
2022-09-24T04:12:43.804Z,2.75
2022-09-24T04:15:12.081Z,2.73
2022-09-24T04:17:40.853Z,2.74
2022-09-24T04:20:09.611Z,2.72
2022-09-24T04:22:38.060Z,2.71
2022-09-24T04:25:09.217Z,2.70
2022-09-24T04:27:41.551Z,2.73
2022-09-24T04:30:10.877Z,2.64
2022-09-24T04:32:39.475Z,2.70
2022-09-24T04:35:08.525Z,2.72
2022-09-24T04:37:38.305Z,2.74
2022-09-24T04:40:13.354Z,2.74
2022-09-24T04:42:42.119Z,2.78
2022-09-24T04:45:11.121Z,2.81
2022-09-24T04:47:40.625Z,2.86
2022-09-24T04:50:12.051Z,2.95
2022-09-24T04:52:40.462Z,2.96
2022-09-24T04:55:08.638Z,3.03
2022-09-24T04:57:37.163Z,3.07
2022-09-24T05:00:08.879Z,3.16
2022-09-24T05:02:37.423Z,3.22
2022-09-24T05:05:06.119Z,3.31
2022-09-24T05:07:34.383Z,3.38
2022-09-24T05:10:02.920Z,3.52
2022-09-24T05:12:31.785Z,3.61
2022-09-24T05:14:59.762Z,3.72
2022-09-24T05:17:27.382Z,3.83
2022-09-24T05:19:57.999Z,3.94
2022-09-24T05:22:28.159Z,4.08
2022-09-24T05:24:56.183Z,4.03
2022-09-24T05:27:24.667Z,4.16
2022-09-24T05:29:52.725Z,4.26
2022-09-24T05:32:21.117Z,4.40
2022-09-24T05:34:49.669Z,4.53
2022-09-24T05:37:18.307Z,4.68
2022-09-24T05:39:46.818Z,4.81
2022-09-24T05:42:15.475Z,5.03
2022-09-24T05:44:47.385Z,5.19
2022-09-24T05:47:19.544Z,5.37
2022-09-24T05:49:47.355Z,5.49
2022-09-24T05:52:15.730Z,5.73
2022-09-24T05:54:43.571Z,5.96
2022-09-24T05:57:15.994Z,6.14
2022-09-24T05:59:43.874Z,6.26
2022-09-24T06:02:12.258Z,6.47
2022-09-24T06:04:40.847Z,6.61
2022-09-24T06:07:08.596Z,6.86
2022-09-24T06:09:38.209Z,7.35
2022-09-24T06:12:11.487Z,7.58
2022-09-24T06:14:43.084Z,7.95
2022-09-24T06:17:11.791Z,8.53
2022-09-24T06:19:39.754Z,9.01
2022-09-24T06:22:08.105Z,9.46
2022-09-24T06:24:35.916Z,9.75
2022-09-24T06:27:04.543Z,9.75
2022-09-24T06:29:33.595Z,9.63
2022-09-24T06:32:02.614Z,9.64
2022-09-24T06:34:30.675Z,9.64
2022-09-24T06:36:59.091Z,9.84
2022-09-24T06:39:29.057Z,10.18
2022-09-24T06:41:59.319Z,10.38
2022-09-24T06:44:35.550Z,10.51
2022-09-24T06:47:04.213Z,10.47
2022-09-24T06:49:34.343Z,10.34
2022-09-24T06:52:02.866Z,10.25
2022-09-24T06:54:31.117Z,10.15
2022-09-24T06:56:58.848Z,10.13
2022-09-24T06:59:27.304Z,10.26
2022-09-24T07:01:56.113Z,10.21
2022-09-24T07:04:24.554Z,10.25
2022-09-24T07:07:10.189Z,10.38
2022-09-24T07:09:40.870Z,10.42
2022-09-24T07:12:09.029Z,10.71
2022-09-24T07:14:36.693Z,10.88
2022-09-24T07:17:05.209Z,10.99
2022-09-24T07:19:33.285Z,11.16
2022-09-24T07:22:01.474Z,11.23
2022-09-24T07:24:29.436Z,11.32
2022-09-24T07:26:57.785Z,11.57
2022-09-24T07:29:25.788Z,11.90
2022-09-24T07:31:54.041Z,12.11
2022-09-24T07:34:21.911Z,12.19
2022-09-24T07:36:50.250Z,12.70
2022-09-24T07:39:19.019Z,12.98
2022-09-24T07:41:47.761Z,13.18
2022-09-24T07:44:16.128Z,13.06
2022-09-24T07:46:44.076Z,13.41
2022-09-24T07:49:11.806Z,13.68
2022-09-24T07:51:39.396Z,13.80
2022-09-24T07:54:07.794Z,13.60
2022-09-24T07:56:35.572Z,13.84
2022-09-24T07:59:06.973Z,14.07
2022-09-24T08:01:35.539Z,14.20
2022-09-24T08:04:05.192Z,14.42
2022-09-24T08:06:39.579Z,14.58
2022-09-24T08:09:09.631Z,14.89
2022-09-24T08:11:38.066Z,14.81
2022-09-24T08:14:06.932Z,14.64
2022-09-24T08:16:35.283Z,14.73
2022-09-24T08:19:03.810Z,14.94
2022-09-24T08:21:32.560Z,15.10
2022-09-24T08:24:01.348Z,15.15
2022-09-24T08:26:29.368Z,15.46
2022-09-24T08:28:58.877Z,15.67
2022-09-24T08:31:27.773Z,16.05
2022-09-24T08:33:56.046Z,16.14
2022-09-24T08:36:24.001Z,16.07
2022-09-24T08:38:57.630Z,16.04
2022-09-24T08:41:51.113Z,15.87
2022-09-24T08:44:57.701Z,15.80
2022-09-24T08:47:51.158Z,15.92
2022-09-24T08:50:28.552Z,15.85
2022-09-24T08:53:06.784Z,15.72
2022-09-24T08:56:04.823Z,15.91
2022-09-24T08:58:47.200Z,16.11
2022-09-24T09:01:25.295Z,16.13
2022-09-24T09:03:57.579Z,16.12
2022-09-24T09:06:50.125Z,16.13
2022-09-24T09:09:34.351Z,15.61
2022-09-24T09:12:06.511Z,15.70
2022-09-24T09:14:50.007Z,15.89
2022-09-24T09:17:25.821Z,15.85
2022-09-24T09:20:02.074Z,15.44
2022-09-24T09:22:35.608Z,15.45
2022-09-24T09:25:26.100Z,15.63
2022-09-24T09:28:03.314Z,15.87
2022-09-24T09:30:39.920Z,15.67
2022-09-24T09:33:20.511Z,15.73
2022-09-24T09:36:26.318Z,15.86
2022-09-24T09:39:14.047Z,15.99
2022-09-24T09:41:52.560Z,16.16
2022-09-24T09:44:26.868Z,16.26
2022-09-24T09:47:04.634Z,16.38
2022-09-24T09:49:38.061Z,16.36
2022-09-24T09:52:15.863Z,15.92
2022-09-24T09:54:44.433Z,15.99
2022-09-24T09:57:17.979Z,16.19
2022-09-24T09:59:49.587Z,16.31
2022-09-24T10:02:32.511Z,15.97
2022-09-24T10:05:04.057Z,15.88
2022-09-24T10:07:33.084Z,16.10
2022-09-24T10:10:24.366Z,16.26
2022-09-24T10:13:09.307Z,16.12
2022-09-24T10:15:56.451Z,16.01
2022-09-24T10:18:32.959Z,15.85
2022-09-24T10:21:04.209Z,15.83
2022-09-24T10:23:38.566Z,15.81
2022-09-24T10:26:07.337Z,15.83
2022-09-24T10:28:59.110Z,15.77
2022-09-24T10:31:31.181Z,15.43
2022-09-24T10:34:00.408Z,15.59
2022-09-24T10:36:34.847Z,15.81
2022-09-24T10:39:04.787Z,15.79
2022-09-24T10:41:33.268Z,15.74
2022-09-24T10:44:11.918Z,15.64
2022-09-24T10:46:49.434Z,15.64
2022-09-24T10:49:42.532Z,15.54
2022-09-24T10:52:22.875Z,15.60
2022-09-24T10:54:57.317Z,15.66
2022-09-24T10:57:32.101Z,15.53
2022-09-24T11:00:21.173Z,15.59
2022-09-24T11:03:20.276Z,15.68
2022-09-24T11:06:39.194Z,15.69
2022-09-24T11:09:16.023Z,15.52
2022-09-24T11:11:49.223Z,15.59
2022-09-24T11:14:31.629Z,15.49
2022-09-24T11:17:30.613Z,15.51
2022-09-24T11:20:17.314Z,15.27
2022-09-24T11:23:17.346Z,15.27
2022-09-24T11:26:01.424Z,15.26
2022-09-24T11:28:50.873Z,15.26
2022-09-24T11:31:49.158Z,15.26
2022-09-24T11:34:38.143Z,15.27
2022-09-24T11:37:21.638Z,15.53
2022-09-24T11:40:22.136Z,15.74
2022-09-24T11:43:02.968Z,15.58
2022-09-24T11:45:48.247Z,15.42
2022-09-24T11:48:38.982Z,15.33
2022-09-24T11:51:19.337Z,15.13
2022-09-24T11:54:14.674Z,15.09
2022-09-24T11:56:47.843Z,15.08
2022-09-24T11:59:46.109Z,15.17
2022-09-24T12:02:26.938Z,15.24
2022-09-24T12:05:00.284Z,15.45
2022-09-24T12:07:33.917Z,15.38
2022-09-24T12:10:32.878Z,15.40
2022-09-24T12:13:39.933Z,15.49
2022-09-24T12:16:17.388Z,15.72
2022-09-24T12:19:04.828Z,15.88
2022-09-24T12:21:35.494Z,16.16
2022-09-24T12:24:19.669Z,16.53
2022-09-24T12:26:48.434Z,16.59
2022-09-24T12:29:59.965Z,16.72
2022-09-24T12:32:56.354Z,16.76
2022-09-24T12:35:49.847Z,16.77
2022-09-24T12:38:19.297Z,16.90
2022-09-24T12:41:18.432Z,16.80
2022-09-24T12:43:53.691Z,16.84
2022-09-24T12:46:24.623Z,16.81
2022-09-24T12:48:53.236Z,16.87
2022-09-24T12:51:22.955Z,16.95
2022-09-24T12:54:05.687Z,16.98
2022-09-24T12:56:35.139Z,16.94
2022-09-24T12:59:05.824Z,16.94
2022-09-24T13:01:34.899Z,16.96
2022-09-24T13:04:25.419Z,16.68
2022-09-24T13:06:54.049Z,16.61
2022-09-24T13:09:37.683Z,16.53
2022-09-24T13:12:30.454Z,16.51
2022-09-24T13:15:04.959Z,16.48
2022-09-24T13:17:35.100Z,16.46
2022-09-24T13:20:09.030Z,16.34
2022-09-24T13:22:38.210Z,16.24
2022-09-24T13:25:27.050Z,16.19
2022-09-24T13:28:01.730Z,16.15
2022-09-24T13:30:29.503Z,16.12
2022-09-24T13:33:00.842Z,16.14
2022-09-24T13:35:35.056Z,15.99
2022-09-24T13:38:13.762Z,15.98
2022-09-24T13:40:49.554Z,16.07
2022-09-24T13:43:28.837Z,16.02
2022-09-24T13:45:58.649Z,16.00
2022-09-24T13:48:42.784Z,15.80
2022-09-24T13:51:15.297Z,15.82
2022-09-24T13:53:53.661Z,15.83
2022-09-24T13:56:21.908Z,15.74
2022-09-24T13:58:51.928Z,15.78
2022-09-24T14:01:25.024Z,15.72
2022-09-24T14:03:59.016Z,15.51
2022-09-24T14:06:38.834Z,15.49
2022-09-24T14:09:25.782Z,15.43
2022-09-24T14:11:57.320Z,15.45
2022-09-24T14:14:29.240Z,15.35
2022-09-24T14:17:14.377Z,15.34
2022-09-24T14:19:43.650Z,15.17
2022-09-24T14:22:39.471Z,15.26
2022-09-24T14:25:11.050Z,15.20
2022-09-24T14:27:43.077Z,15.16
2022-09-24T14:30:17.869Z,15.29
2022-09-24T14:32:46.170Z,15.26
2022-09-24T14:35:18.755Z,15.28
2022-09-24T14:37:50.395Z,15.31
2022-09-24T14:40:21.870Z,15.36
2022-09-24T14:42:57.660Z,15.30
2022-09-24T14:45:34.779Z,15.27
2022-09-24T14:48:25.258Z,15.34
2022-09-24T14:50:53.797Z,15.39
2022-09-24T14:53:22.667Z,15.47
2022-09-24T14:55:51.020Z,15.50
2022-09-24T14:58:36.675Z,15.59
2022-09-24T15:01:17.924Z,15.62
2022-09-24T15:03:51.810Z,15.69
2022-09-24T15:06:32.724Z,15.62
2022-09-24T15:09:02.924Z,15.64
2022-09-24T15:11:34.974Z,15.66
2022-09-24T15:14:16.422Z,15.72
2022-09-24T15:16:47.187Z,15.67
2022-09-24T15:19:31.288Z,15.69
2022-09-24T15:22:00.402Z,15.73
2022-09-24T15:24:29.921Z,15.44
2022-09-24T15:27:01.498Z,15.48
2022-09-24T15:29:30.140Z,15.46
2022-09-24T15:31:59.465Z,15.41
2022-09-24T15:34:29.255Z,15.41
2022-09-24T15:36:59.786Z,15.36
2022-09-24T15:39:29.252Z,15.35
2022-09-24T15:41:57.187Z,15.17
2022-09-24T15:44:32.883Z,14.91
2022-09-24T15:47:02.119Z,14.55
2022-09-24T15:49:30.182Z,14.35
2022-09-24T15:52:18.563Z,14.16
2022-09-24T15:54:47.331Z,14.02
2022-09-24T15:57:15.401Z,13.83
2022-09-24T15:59:43.384Z,13.64
2022-09-24T16:02:33.197Z,13.30
2022-09-24T16:05:04.087Z,12.95
2022-09-24T16:07:33.334Z,12.75
2022-09-24T16:10:02.197Z,12.64
2022-09-24T16:12:30.574Z,12.46
2022-09-24T16:15:01.228Z,12.32
2022-09-24T16:17:31.228Z,12.12
2022-09-24T16:19:59.413Z,12.08
2022-09-24T16:22:28.283Z,11.93
2022-09-24T16:24:56.272Z,11.82
2022-09-24T16:27:24.387Z,11.69
2022-09-24T16:29:52.955Z,11.56
2022-09-24T16:32:20.967Z,11.38
2022-09-24T16:34:49.343Z,11.24
2022-09-24T16:37:18.854Z,11.08
2022-09-24T16:39:47.981Z,10.92
2022-09-24T16:42:16.165Z,10.77
2022-09-24T16:44:44.757Z,10.66
2022-09-24T16:47:17.212Z,10.51
2022-09-24T16:49:46.447Z,10.36
2022-09-24T16:52:14.278Z,10.33
2022-09-24T16:54:42.844Z,10.22
2022-09-24T16:57:11.485Z,10.12
2022-09-24T16:59:40.168Z,10.03
2022-09-24T17:02:11.824Z,9.92
2022-09-24T17:04:41.719Z,9.85
2022-09-24T17:07:10.989Z,9.77
2022-09-24T17:09:58.756Z,9.74
2022-09-24T17:12:28.573Z,9.69
2022-09-24T17:14:57.791Z,9.62
2022-09-24T17:17:26.996Z,9.53
2022-09-24T17:19:55.671Z,9.38
2022-09-24T17:22:23.586Z,9.39
2022-09-24T17:24:53.174Z,9.29
2022-09-24T17:27:21.704Z,9.26
2022-09-24T17:29:49.619Z,9.25
2022-09-24T17:32:18.109Z,9.19
2022-09-24T17:34:46.755Z,9.14
2022-09-24T17:37:14.614Z,9.17
2022-09-24T17:39:42.950Z,9.08
2022-09-24T17:42:11.889Z,8.99
2022-09-24T17:44:40.196Z,8.96
2022-09-24T17:47:08.243Z,8.88
2022-09-24T17:49:37.798Z,8.84
2022-09-24T17:52:06.212Z,8.85
2022-09-24T17:54:34.928Z,8.89
2022-09-24T17:57:03.397Z,8.82
2022-09-24T17:59:31.454Z,8.82
2022-09-24T18:02:00.525Z,8.83
2022-09-24T18:04:31.440Z,8.81
2022-09-24T18:06:59.611Z,8.74
2022-09-24T18:09:27.512Z,8.77
2022-09-24T18:11:57.186Z,8.74
2022-09-24T18:14:26.627Z,8.74
2022-09-24T18:16:55.025Z,8.72
2022-09-24T18:19:23.781Z,8.67
2022-09-24T18:21:52.584Z,8.67
2022-09-24T18:24:20.978Z,8.58
2022-09-24T18:26:51.950Z,8.52
2022-09-24T18:29:22.362Z,8.38
2022-09-24T18:31:52.057Z,8.33
2022-09-24T18:34:21.408Z,8.38
2022-09-24T18:36:49.304Z,8.31
2022-09-24T18:39:23.691Z,8.23
2022-09-24T18:41:54.311Z,8.18
2022-09-24T18:44:22.938Z,8.19
2022-09-24T18:46:51.488Z,8.14
2022-09-24T18:49:20.166Z,8.13
2022-09-24T18:51:49.732Z,8.06
2022-09-24T18:54:19.465Z,7.87
2022-09-24T18:56:48.002Z,7.82
2022-09-24T18:59:19.209Z,7.80
2022-09-24T19:01:51.247Z,7.79
2022-09-24T19:04:20.577Z,7.75
2022-09-24T19:06:50.801Z,7.73
2022-09-24T19:09:21.041Z,7.72
2022-09-24T19:11:49.585Z,7.70
2022-09-24T19:14:18.673Z,7.73
2022-09-24T19:16:47.775Z,7.70
2022-09-24T19:19:16.793Z,7.64
2022-09-24T19:21:45.408Z,7.41
2022-09-24T19:24:13.674Z,7.51
2022-09-24T19:26:42.197Z,7.48
2022-09-24T19:29:10.939Z,7.54
2022-09-24T19:31:43.097Z,7.51
2022-09-24T19:34:13.348Z,7.47
2022-09-24T19:36:45.227Z,7.39
2022-09-24T19:39:16.329Z,7.47
2022-09-24T19:41:47.115Z,7.39
2022-09-24T19:44:17.030Z,7.43
2022-09-24T19:46:45.743Z,7.34
2022-09-24T19:49:14.739Z,7.37
2022-09-24T19:51:43.639Z,7.31
2022-09-24T19:54:12.228Z,7.28
2022-09-24T19:56:40.698Z,7.26
2022-09-24T19:59:10.517Z,7.22
2022-09-24T20:01:38.985Z,7.19
2022-09-24T20:04:08.160Z,7.12
2022-09-24T20:06:40.179Z,7.01
2022-09-24T20:09:08.688Z,6.99
2022-09-24T20:11:38.953Z,6.95
2022-09-24T20:14:09.864Z,6.85
2022-09-24T20:16:38.508Z,6.86
2022-09-24T20:19:07.001Z,6.83
2022-09-24T20:21:35.699Z,6.80
2022-09-24T20:24:05.317Z,6.67
2022-09-24T20:26:52.597Z,6.73
2022-09-24T20:29:23.243Z,6.71
2022-09-24T20:31:55.900Z,6.69
2022-09-24T20:34:32.361Z,6.65
2022-09-24T20:37:05.967Z,6.64
2022-09-24T20:39:34.592Z,6.60
2022-09-24T20:42:04.198Z,6.58
2022-09-24T20:44:34.867Z,6.52
2022-09-24T20:47:03.498Z,6.51
2022-09-24T20:49:33.403Z,6.49
2022-09-24T20:52:03.790Z,6.45
2022-09-24T20:54:34.387Z,6.46
2022-09-24T20:57:03.266Z,6.46
2022-09-24T20:59:32.523Z,6.38
2022-09-24T21:02:00.658Z,6.27
2022-09-24T21:04:29.120Z,6.27
2022-09-24T21:06:57.798Z,6.27
2022-09-24T21:09:26.105Z,6.33
2022-09-24T21:11:55.033Z,6.29
2022-09-24T21:14:23.530Z,6.33
2022-09-24T21:16:55.383Z,6.34
2022-09-24T21:19:25.637Z,6.31
2022-09-24T21:21:54.476Z,6.31
2022-09-24T21:24:26.365Z,6.31
2022-09-24T21:26:59.766Z,6.33
2022-09-24T21:29:28.215Z,6.32
2022-09-24T21:31:56.097Z,6.30
2022-09-24T21:34:30.006Z,6.29
2022-09-24T21:37:01.320Z,6.26
2022-09-24T21:39:32.885Z,6.24
2022-09-24T21:42:02.338Z,6.23
2022-09-24T21:44:34.459Z,6.17
2022-09-24T21:47:02.660Z,6.15
2022-09-24T21:49:34.436Z,6.14
2022-09-24T21:52:05.704Z,6.06
2022-09-24T21:54:35.427Z,5.93
2022-09-24T21:57:03.219Z,5.84
2022-09-24T21:59:49.656Z,5.79
2022-09-24T22:02:19.230Z,5.69
2022-09-24T22:04:48.162Z,5.61
2022-09-24T22:07:17.866Z,5.55
2022-09-24T22:09:46.227Z,5.47
2022-09-24T22:12:14.176Z,5.46
2022-09-24T22:14:42.171Z,5.41
2022-09-24T22:17:11.016Z,5.42
2022-09-24T22:19:38.863Z,5.36
2022-09-24T22:22:07.491Z,5.37
2022-09-24T22:24:37.042Z,5.35
2022-09-24T22:27:05.123Z,5.31
2022-09-24T22:29:33.613Z,5.22
2022-09-24T22:32:03.410Z,5.23
2022-09-24T22:34:49.999Z,5.21
2022-09-24T22:37:18.253Z,5.17
2022-09-24T22:39:46.646Z,5.12
2022-09-24T22:42:15.235Z,5.08
2022-09-24T22:44:44.010Z,5.07
2022-09-24T22:47:11.727Z,5.07
2022-09-24T22:49:39.599Z,5.04
2022-09-24T22:52:07.970Z,5.01
2022-09-24T22:54:36.143Z,5.01
2022-09-24T22:57:04.491Z,4.98
2022-09-24T22:59:33.154Z,5.01
2022-09-24T23:02:01.365Z,5.02
2022-09-24T23:04:30.282Z,4.97
2022-09-24T23:06:58.806Z,5.04
2022-09-24T23:09:27.292Z,5.05
2022-09-24T23:11:56.993Z,4.99
2022-09-24T23:14:25.790Z,5.13
2022-09-24T23:16:54.145Z,5.15
2022-09-24T23:19:22.370Z,5.15
2022-09-24T23:21:50.666Z,5.22
2022-09-24T23:24:20.690Z,5.19
2022-09-24T23:26:48.904Z,5.23
2022-09-24T23:29:17.259Z,5.29
2022-09-24T23:31:46.064Z,5.33
2022-09-24T23:34:14.819Z,5.36
2022-09-24T23:36:45.477Z,5.31
2022-09-24T23:39:14.396Z,5.28
2022-09-24T23:41:42.679Z,5.30
2022-09-24T23:44:11.576Z,5.28
2022-09-24T23:46:40.115Z,5.29
2022-09-24T23:49:08.015Z,5.27
2022-09-24T23:51:36.728Z,5.25
2022-09-24T23:54:05.303Z,5.21
2022-09-24T23:56:33.893Z,5.21
2022-09-24T23:59:02.229Z,5.14
